Time;durP1;ratioP1;P1;durP2;ratioP2;P2;SDS_P1;SDS_P2;PMS_P1;PMS_P2;Temp;Humidity;BMP_temperature;BMP_pressure;BME280_temperature;BME280_humidity;BME280_pressure;Samples;Min_cycle;Max_cycle;Signal;HPM_P1;HPM_P2
2022/06/23 00:01:50;;;;;;;3.72;2.30;;;;;;;19.26;83.13;98400.16;5088754;28;20391;-64
2022/06/23 00:04:40;;;;;;;3.33;1.98;;;;;;;19.32;81.85;98402.91;5106119;28;20084;-64
2022/06/23 00:07:28;;;;;;;5.07;2.10;;;;;;;19.31;79.86;98403.94;5117349;28;20049;-64
2022/06/23 00:10:28;;;;;;;4.18;1.90;;;;;;;19.42;78.93;98399.25;5108791;28;20044;-65
2022/06/23 00:13:16;;;;;;;4.68;2.05;;;;;;;19.26;78.09;98395.66;5102913;28;20035;-64
2022/06/23 00:16:02;;;;;;;5.60;2.10;;;;;;;19.24;78.47;98388.84;5123855;28;20078;-65
2022/06/23 00:18:46;;;;;;;3.17;2.13;;;;;;;19.22;78.66;98394.34;5123519;28;20055;-67
2022/06/23 00:21:33;;;;;;;3.03;2.05;;;;;;;19.27;78.82;98399.13;5121834;28;20052;-63
2022/06/23 00:24:24;;;;;;;3.80;1.92;;;;;;;19.31;78.74;98403.94;5118235;28;20054;-66
2022/06/23 00:27:15;;;;;;;5.03;1.70;;;;;;;19.34;78.38;98402.75;5116996;28;20038;-64
2022/06/23 00:30:19;;;;;;;3.67;1.95;;;;;;;19.28;77.58;98424.69;5081235;28;20063;-66
2022/06/23 00:33:27;;;;;;;4.25;2.17;;;;;;;19.31;76.76;98427.81;5115739;28;20047;-65
2022/06/23 00:36:37;;;;;;;3.33;2.08;;;;;;;19.35;75.22;98432.78;5102410;28;20421;-64
2022/06/23 00:39:40;;;;;;;3.15;1.98;;;;;;;19.32;74.09;98439.28;5114546;28;20031;-64
2022/06/23 00:42:27;;;;;;;2.90;1.60;;;;;;;19.39;72.87;98442.91;5113209;28;20040;-66
2022/06/23 00:45:12;;;;;;;3.20;1.85;;;;;;;19.40;72.32;98446.41;5114606;28;20039;-65
2022/06/23 00:47:57;;;;;;;2.78;1.60;;;;;;;19.47;70.71;98459.81;5114724;28;20043;-64
2022/06/23 00:51:01;;;;;;;1.98;1.75;;;;;;;19.49;70.03;98465.81;5078723;28;20111;-65
2022/06/23 00:54:15;;;;;;;2.50;1.40;;;;;;;19.46;69.44;98469.63;5101861;28;20044;-62
2022/06/23 00:57:34;;;;;;;3.08;1.65;;;;;;;19.58;68.97;98473.56;5085387;28;20428;-65
2022/06/23 01:00:23;;;;;;;2.80;1.30;;;;;;;19.58;69.15;98476.22;5097448;28;20074;-65
2022/06/23 01:03:07;;;;;;;3.45;1.60;;;;;;;19.53;69.15;98462.63;5099152;28;20043;-65
2022/06/23 01:05:55;;;;;;;3.88;1.83;;;;;;;19.52;68.83;98476.91;5114008;28;20073;-64
2022/06/23 01:08:49;;;;;;;3.55;1.65;;;;;;;19.47;69.15;98467.78;5114348;28;20424;-64
2022/06/23 01:11:40;;;;;;;2.53;1.65;;;;;;;19.45;68.77;98457.34;5114635;28;20073;-64
2022/06/23 01:14:34;;;;;;;2.85;1.70;;;;;;;19.42;68.49;98452.38;5104322;28;20044;-65
2022/06/23 01:17:23;;;;;;;2.42;1.50;;;;;;;19.49;68.43;98436.59;5083509;28;20474;-63
2022/06/23 01:20:08;;;;;;;2.25;1.40;;;;;;;19.53;67.88;98436.06;5114822;28;20059;-64
2022/06/23 01:23:18;;;;;;;2.63;1.40;;;;;;;19.51;67.77;98432.75;5098653;28;20079;-63
2022/06/23 01:26:23;;;;;;;3.08;1.88;;;;;;;19.44;68.20;98440.56;5093571;28;20063;-64
2022/06/23 01:29:44;;;;;;;2.20;1.58;;;;;;;19.49;67.53;98441.91;5079106;28;20036;-64
2022/06/23 01:32:36;;;;;;;3.08;1.48;;;;;;;19.41;67.30;98443.56;5112438;28;20058;-65
2022/06/23 01:35:26;;;;;;;3.55;1.50;;;;;;;19.56;66.94;98456.13;5098884;28;20097;-63
2022/06/23 01:38:22;;;;;;;2.43;1.40;;;;;;;19.53;67.39;98459.13;5087827;28;20364;-65
2022/06/23 01:41:35;;;;;;;2.72;1.50;;;;;;;19.50;68.88;98456.81;5113907;28;20031;-67
2022/06/23 01:44:55;;;;;;;3.08;1.75;;;;;;;19.59;69.38;98455.78;5113611;28;20050;-64
2022/06/23 01:48:51;;;;;;;4.45;1.75;;;;;;;19.40;70.76;98446.41;5098062;28;20047;-64
2022/06/23 01:51:23;;;;;;;4.22;1.60;;;;;;;19.42;71.42;98449.72;5114927;28;20393;-65
2022/06/23 01:54:20;;;;;;;2.65;1.90;;;;;;;19.34;72.86;98461.16;5115096;28;20058;-65
2022/06/23 01:57:05;;;;;;;2.72;1.90;;;;;;;19.35;73.45;98460.19;5102519;28;20040;-65
2022/06/23 02:00:03;;;;;;;4.32;1.90;;;;;;;19.35;73.97;98462.00;5095321;28;20117;-65
2022/06/23 02:03:11;;;;;;;4.15;1.77;;;;;;;19.31;74.34;98466.81;5100681;28;20062;-65
2022/06/23 02:06:05;;;;;;;3.97;2.00;;;;;;;19.26;74.89;98463.88;5111840;28;20123;-65
2022/06/23 02:09:11;;;;;;;2.67;1.88;;;;;;;19.25;75.04;98468.34;5069476;28;20071;-64
2022/06/23 02:11:56;;;;;;;4.50;1.92;;;;;;;19.20;75.89;98468.00;5108684;28;20047;-63
2022/06/23 02:14:54;;;;;;;2.83;1.90;;;;;;;19.17;77.39;98469.19;5097584;28;20511;-65
2022/06/23 02:17:53;;;;;;;3.85;2.03;;;;;;;19.16;79.56;98466.72;5085748;28;20046;-64
2022/06/23 02:20:56;;;;;;;4.95;1.92;;;;;;;19.00;80.07;98462.22;5111210;28;20067;-65
2022/06/23 02:23:49;;;;;;;2.95;2.08;;;;;;;18.89;79.76;98469.50;5104425;28;20051;-64
2022/06/23 02:26:41;;;;;;;3.95;2.67;;;;;;;18.89;79.77;98469.50;5097967;28;20035;-64
2022/06/23 02:29:39;;;;;;;;;;;;;;;18.85;79.51;98473.47;5099373;28;20419;-64
2022/06/23 02:32:31;;;;;;;3.50;2.20;;;;;;;18.86;79.41;98471.66;5111658;28;20265;-63
2022/06/23 02:35:30;;;;;;;4.00;1.77;;;;;;;18.84;78.79;98482.44;5092504;28;20063;-63
2022/06/23 02:38:26;;;;;;;2.65;1.85;;;;;;;18.76;79.08;98485.09;5092861;28;20039;-64
2022/06/23 02:41:18;;;;;;;3.50;1.70;;;;;;;18.73;78.63;98480.94;5096770;28;20040;-64
2022/06/23 02:44:39;;;;;;;2.97;1.88;;;;;;;18.70;78.49;98476.78;5097668;28;20043;-64
2022/06/23 02:47:33;;;;;;;4.75;2.00;;;;;;;18.66;78.81;98494.03;5112190;28;20055;-64
2022/06/23 02:50:32;;;;;;;2.95;1.83;;;;;;;18.60;78.77;98486.75;5112840;28;20122;-64
2022/06/23 02:53:20;;;;;;;5.60;1.67;;;;;;;18.60;78.97;98500.00;5096828;28;20035;-63
2022/06/23 02:57:03;;;;;;;3.28;1.80;;;;;;;18.61;78.46;98504.31;5111129;28;20050;-65
2022/06/23 03:00:04;;;;;;;3.80;1.90;;;;;;;18.57;78.23;98495.03;5003631;28;20317;-64
2022/06/23 03:02:55;;;;;;;2.53;1.80;;;;;;;18.57;78.20;98498.50;5009604;28;20044;-64
2022/06/23 03:05:56;;;;;;;2.78;2.03;;;;;;;18.55;77.97;98510.28;5101506;28;20463;-64
2022/06/23 03:09:05;;;;;;;4.18;2.13;;;;;;;18.57;79.20;98516.25;5076345;28;20526;-64
2022/06/23 03:12:00;;;;;;;6.88;2.60;;;;;;;18.54;81.41;98520.03;5110532;28;20035;-64
2022/06/23 03:14:57;;;;;;;3.45;2.03;;;;;;;18.53;82.03;98526.34;5111542;28;20053;-64
2022/06/23 03:18:04;;;;;;;3.50;2.28;;;;;;;18.50;82.76;98526.69;5096787;28;20046;-63
2022/06/23 03:21:01;;;;;;;2.97;2.05;;;;;;;18.54;83.92;98530.66;5083933;28;20676;-64
2022/06/23 03:24:18;;;;;;;3.67;2.22;;;;;;;18.55;83.29;98524.38;5111888;28;20062;-63
2022/06/23 03:27:46;;;;;;;3.40;2.38;;;;;;;18.64;84.28;98522.53;5089326;28;20463;-63
2022/06/23 03:30:38;;;;;;;4.35;2.38;;;;;;;18.66;84.24;98533.84;5077100;28;20067;-64
2022/06/23 03:33:47;;;;;;;3.78;2.10;;;;;;;18.73;82.14;98543.78;5111557;28;20043;-64
2022/06/23 03:36:41;;;;;;;4.30;2.47;;;;;;;18.80;81.31;98534.19;5103500;28;20563;-64
2022/06/23 03:42:41;;;;;;;2.78;2.15;;;;;;;18.98;80.18;98536.66;5096668;28;20035;-64
2022/06/23 03:45:38;;;;;;;4.63;2.10;;;;;;;19.00;80.24;98541.84;5099189;28;20099;-63
2022/06/23 03:48:33;;;;;;;3.28;2.13;;;;;;;18.95;82.04;98537.00;5121652;28;20054;-62
2022/06/23 03:51:28;;;;;;;6.15;2.63;;;;;;;18.92;82.16;98545.28;5096156;28;20063;-64
2022/06/23 03:54:31;;;;;;;6.68;2.40;;;;;;;19.02;84.16;98542.47;5109373;28;20051;-65
2022/06/23 03:57:26;;;;;;;3.42;2.25;;;;;;;19.06;82.20;98547.28;5112134;28;20032;-65
2022/06/23 04:00:22;;;;;;;5.50;2.45;;;;;;;19.07;81.52;98548.97;5099480;28;20100;-65
2022/06/23 04:03:48;;;;;;;2.90;2.20;;;;;;;19.07;85.84;98556.09;5111763;28;20237;-65
2022/06/23 04:06:39;;;;;;;2.67;2.13;;;;;;;18.93;87.82;98558.41;4995443;28;20363;-63
2022/06/23 04:09:27;;;;;;;3.90;2.40;;;;;;;18.90;87.64;98557.91;4995198;28;20100;-63
2022/06/23 04:12:15;;;;;;;8.52;2.33;;;;;;;19.01;87.39;98559.41;5076599;28;20051;-64
2022/06/23 04:15:17;;;;;;;4.80;2.40;;;;;;;19.03;87.93;98566.19;5111516;28;20050;-65
2022/06/23 04:18:09;;;;;;;7.78;2.40;;;;;;;19.12;85.70;98567.06;5096911;28;20385;-63
2022/06/23 04:21:09;;;;;;;4.00;2.53;;;;;;;19.24;86.48;98572.06;5076490;28;20056;-64
2022/06/23 04:24:02;;;;;;;6.43;2.22;;;;;;;19.32;83.56;98575.53;5099167;28;20421;-64
2022/06/23 04:26:52;;;;;;;2.83;2.20;;;;;;;19.50;83.48;98589.63;5109974;28;20031;-63
2022/06/23 04:29:38;;;;;;;2.45;1.80;;;;;;;19.50;83.65;98586.97;5111901;28;20043;-63
2022/06/23 04:32:27;;;;;;;4.85;3.05;;;;;;;19.28;88.17;98597.25;5111062;28;20114;-63
2022/06/23 04:35:17;;;;;;;9.90;4.53;;;;;;;19.04;89.17;98598.88;5113922;28;20043;-64
2022/06/23 04:38:39;;;;;;;11.70;7.75;;;;;;;18.83;92.78;98608.16;5115121;28;20032;-64
2022/06/23 04:41:29;;;;;;;9.57;5.60;;;;;;;18.93;92.24;98613.31;5057480;28;20048;-63
2022/06/23 04:44:16;;;;;;;6.22;4.88;;;;;;;19.20;90.76;98620.19;5114309;28;20118;-63
2022/06/23 04:47:18;;;;;;;7.13;4.97;;;;;;;19.22;90.61;98616.53;5112528;28;20028;-65
2022/06/23 04:50:30;;;;;;;7.80;4.05;;;;;;;19.30;91.22;98621.84;5115112;28;20047;-63
2022/06/23 04:53:23;;;;;;;8.10;3.75;;;;;;;19.52;89.41;98624.84;5114289;28;20501;-65
2022/06/23 04:56:13;;;;;;;9.50;3.55;;;;;;;19.60;88.40;98619.50;5104823;28;20055;-63
2022/06/23 04:59:16;;;;;;;5.57;3.70;;;;;;;19.56;89.12;98624.31;5114289;28;20047;-63
2022/06/23 05:02:32;;;;;;;6.05;3.30;;;;;;;19.55;89.36;98617.34;5099678;28;20044;-63
2022/06/23 05:05:22;;;;;;;5.93;3.00;;;;;;;19.66;88.90;98612.69;5090520;28;20040;-63
2022/06/23 05:08:23;;;;;;;9.57;3.78;;;;;;;19.68;88.22;98624.00;5114068;28;20050;-63
2022/06/23 05:11:17;;;;;;;4.95;2.97;;;;;;;19.99;86.95;98617.97;5114891;28;20474;-64
2022/06/23 05:14:13;;;;;;;5.28;3.45;;;;;;;20.06;87.62;98621.59;5093837;28;20036;-63
2022/06/23 05:17:13;;;;;;;6.55;2.88;;;;;;;19.77;89.42;98627.44;5113049;28;20504;-63
2022/06/23 05:20:04;;;;;;;5.10;3.45;;;;;;;19.84;89.52;98628.44;5098152;28;20056;-63
2022/06/23 05:22:49;;;;;;;8.07;2.92;;;;;;;20.20;87.80;98635.19;5099213;28;20359;-64
2022/06/23 05:25:41;;;;;;;8.40;3.35;;;;;;;20.12;87.09;98632.56;5098010;28;20035;-63
2022/06/23 05:28:31;;;;;;;7.18;3.00;;;;;;;19.86;89.61;98638.91;5113994;28;20455;-65
2022/06/23 05:31:21;;;;;;;5.00;2.88;;;;;;;19.87;88.75;98645.88;5113427;28;20422;-65
2022/06/23 05:34:12;;;;;;;3.80;3.00;;;;;;;19.85;91.35;98654.00;5094832;28;20039;-63
2022/06/23 05:37:12;;;;;;;5.45;2.97;;;;;;;20.08;90.24;98655.16;5112956;28;20040;-63
2022/06/23 05:40:12;;;;;;;5.45;3.00;;;;;;;20.15;88.92;98664.13;5114065;28;20059;-65
2022/06/23 05:43:00;;;;;;;4.63;2.97;;;;;;;20.38;87.28;98660.75;5113296;28;20039;-63
2022/06/23 05:45:49;;;;;;;3.92;2.70;;;;;;;20.49;86.06;98665.69;5097207;28;20138;-63
2022/06/23 05:48:41;;;;;;;7.05;3.17;;;;;;;20.51;86.42;98668.16;5113847;28;20044;-64
2022/06/23 05:51:48;;;;;;;;;;;;;;;20.59;85.65;98672.63;5096734;28;20486;-63
2022/06/23 05:54:44;;;;;;;7.65;3.30;;;;;;;20.91;84.38;98676.13;5097462;28;19916;-65
2022/06/23 05:57:58;;;;;;;4.30;2.90;;;;;;;21.29;83.13;98678.09;5097676;28;20360;-64
2022/06/23 06:01:00;;;;;;;4.75;3.15;;;;;;;21.60;79.96;98687.03;5083007;28;20048;-63
2022/06/23 06:03:50;;;;;;;5.78;3.30;;;;;;;21.39;80.69;98680.53;5100814;28;20043;-63
2022/06/23 06:06:36;;;;;;;7.10;3.28;;;;;;;21.72;78.25;98684.75;5098537;28;20042;-65
2022/06/23 06:09:35;;;;;;;7.43;3.13;;;;;;;21.89;77.36;98686.31;5082502;28;20035;-64
2022/06/23 06:12:20;;;;;;;6.50;2.88;;;;;;;22.08;75.93;98680.63;5086094;28;20429;-64
2022/06/23 06:15:19;;;;;;;7.30;3.13;;;;;;;22.19;74.29;98685.50;5097332;28;20097;-64
2022/06/23 06:18:19;;;;;;;4.43;2.97;;;;;;;22.42;72.17;98683.75;5113296;28;20043;-65
2022/06/23 06:21:07;;;;;;;5.43;2.50;;;;;;;22.24;72.61;98685.81;5097886;28;20051;-67
2022/06/23 06:24:06;;;;;;;6.00;3.08;;;;;;;22.15;71.78;98690.38;5102808;28;20062;-65
2022/06/23 06:26:55;;;;;;;3.38;2.50;;;;;;;22.12;69.38;98684.56;5100903;28;20108;-65
2022/06/23 06:29:43;;;;;;;4.22;2.50;;;;;;;22.02;69.96;98690.16;5089602;28;20051;-64
2022/06/23 06:32:39;;;;;;;3.92;2.22;;;;;;;22.26;66.60;98682.94;5113216;28;20063;-65
2022/06/23 06:35:42;;;;;;;4.05;2.40;;;;;;;22.49;65.09;98680.16;5107600;28;20031;-64
2022/06/23 06:38:30;;;;;;;4.32;2.05;;;;;;;22.62;64.27;98690.22;5097452;28;20096;-64
2022/06/23 06:41:14;;;;;;;3.58;2.13;;;;;;;22.76;63.62;98682.38;5107996;28;20042;-65
2022/06/23 06:44:02;;;;;;;5.22;2.30;;;;;;;22.67;64.46;98692.31;5096983;28;20042;-64
2022/06/23 06:46:47;;;;;;;5.88;2.30;;;;;;;22.85;64.89;98693.78;5096534;28;20035;-65
2022/06/23 06:49:33;;;;;;;4.38;2.05;;;;;;;23.00;63.16;98696.41;5086154;28;20047;-64
2022/06/23 06:52:18;;;;;;;5.57;2.17;;;;;;;23.02;62.78;98699.72;5112507;28;20122;-65
2022/06/23 06:55:14;;;;;;;4.25;2.28;;;;;;;23.43;60.82;98706.34;5098309;28;20036;-64
2022/06/23 06:58:26;;;;;;;2.72;2.30;;;;;;;23.53;60.36;98710.53;5096482;28;20114;-66
2022/06/23 07:01:21;;;;;;;;;;;;;;;23.47;60.62;98709.47;5097278;28;20084;-63
2022/06/23 07:04:14;;;;;;;3.90;2.10;;;;;;;23.68;60.42;98711.28;5096289;28;19916;-65
2022/06/23 07:07:05;;;;;;;6.35;2.55;;;;;;;23.52;59.39;98712.38;5076348;28;20486;-65
2022/06/23 07:10:03;;;;;;;4.18;2.83;;;;;;;23.38;60.20;98711.41;5106292;28;20066;-65
2022/06/23 07:12:53;;;;;;;5.63;2.65;;;;;;;23.38;59.82;98711.41;5100507;28;20437;-65
2022/06/23 07:15:45;;;;;;;4.30;2.50;;;;;;;23.87;58.83;98714.31;5083222;28;20092;-66
2022/06/23 07:18:40;;;;;;;3.45;2.03;;;;;;;23.69;58.35;98706.78;5108920;28;20089;-64
2022/06/23 07:21:36;;;;;;;4.05;2.00;;;;;;;24.13;57.62;98718.22;5117667;28;20488;-64
2022/06/23 07:24:37;;;;;;;5.57;2.50;;;;;;;24.54;55.05;98713.97;5093196;28;20047;-66
2022/06/23 07:27:50;;;;;;;3.43;2.13;;;;;;;24.65;53.88;98715.25;5100523;28;20062;-66
2022/06/23 07:30:44;;;;;;;3.45;2.08;;;;;;;24.71;54.59;98716.31;5110929;28;20032;-67
2022/06/23 07:33:44;;;;;;;5.68;2.45;;;;;;;24.54;50.53;98716.66;5105135;28;20065;-65
2022/06/23 07:36:52;;;;;;;4.05;2.10;;;;;;;25.05;51.42;98719.16;5097515;28;20047;-64
2022/06/23 07:39:39;;;;;;;5.45;2.08;;;;;;;24.71;52.86;98724.34;5071101;28;20534;-64
2022/06/23 07:42:30;;;;;;;4.20;1.92;;;;;;;25.08;51.43;98713.38;5111565;28;20202;-65
2022/06/23 07:45:25;;;;;;;2.15;1.75;;;;;;;25.68;48.73;98719.91;5111948;28;20040;-65
2022/06/23 07:48:10;;;;;;;3.92;2.00;;;;;;;25.72;48.06;98718.47;5109600;28;20378;-64
2022/06/23 07:50:57;;;;;;;3.22;1.88;;;;;;;25.59;48.79;98714.72;5093267;28;20043;-66
2022/06/23 07:53:49;;;;;;;2.60;1.85;;;;;;;26.04;48.37;98718.66;5096646;28;20036;-66
2022/06/23 07:56:39;;;;;;;4.32;2.00;;;;;;;25.99;45.98;98718.47;5079432;28;20040;-65
2022/06/23 07:59:41;;;;;;;2.67;1.80;;;;;;;25.97;45.86;98717.03;5100596;28;20102;-64
2022/06/23 08:03:10;;;;;;;3.35;1.50;;;;;;;26.31;46.40;98718.63;5108834;28;20274;-65
2022/06/23 08:06:01;;;;;;;3.47;1.60;;;;;;;26.49;45.89;98710.97;5074018;28;20035;-66
2022/06/23 08:08:48;;;;;;;3.47;1.92;;;;;;;26.22;46.45;98716.38;5091128;28;20111;-65
2022/06/23 08:14:48;;;;;;;3.47;1.80;;;;;;;27.22;44.01;98709.03;5093918;28;20542;-65
2022/06/23 08:17:34;;;;;;;2.13;1.30;;;;;;;27.47;44.21;98715.50;5104983;28;20036;-63
2022/06/23 08:20:24;;;;;;;2.35;1.67;;;;;;;27.23;43.81;98717.91;5114455;28;20375;-67
2022/06/23 08:23:11;;;;;;;;;;;;;;;27.35;44.37;98712.66;5101072;28;20040;-66
2022/06/23 08:25:56;;;;;;;2.08;1.40;;;;;;;28.37;41.34;98716.19;5118023;28;19934;-65
2022/06/23 08:28:44;;;;;;;2.42;1.55;;;;;;;27.68;44.10;98714.34;5120468;28;20367;-65
2022/06/23 08:31:31;;;;;;;2.25;1.75;;;;;;;27.79;43.97;98713.59;5083972;28;20428;-66
2022/06/23 08:34:15;;;;;;;4.22;1.50;;;;;;;27.78;43.32;98711.97;5099486;28;20417;-65
2022/06/23 08:37:08;;;;;;;3.92;1.52;;;;;;;28.24;42.38;98711.75;5099912;28;20043;-64
2022/06/23 08:40:01;;;;;;;1.83;1.25;;;;;;;28.50;40.55;98714.41;5096770;28;20125;-67
2022/06/23 08:43:02;;;;;;;3.53;1.83;;;;;;;29.23;39.97;98711.03;5085469;28;20043;-65
2022/06/23 08:45:59;;;;;;;4.75;1.60;;;;;;;29.84;39.30;98710.94;5093159;28;20047;-65
2022/06/23 08:49:14;;;;;;;2.55;1.52;;;;;;;29.34;41.59;98706.72;5103545;28;20044;-67
2022/06/23 08:52:05;;;;;;;3.58;1.23;;;;;;;29.27;37.63;98714.91;5094973;28;20424;-66
2022/06/23 08:55:14;;;;;;;1.85;1.30;;;;;;;28.41;37.73;98712.00;5108844;28;20046;-66
2022/06/23 08:58:08;;;;;;;1.90;1.10;;;;;;;27.53;38.51;98711.94;5095588;28;20043;-66
2022/06/23 09:00:57;;;;;;;3.30;1.50;;;;;;;29.22;36.28;98706.69;5088570;28;20039;-66
2022/06/23 09:04:02;;;;;;;2.78;0.88;;;;;;;30.09;35.18;98711.75;5107642;28;20051;-66
2022/06/23 09:06:52;;;;;;;2.25;1.27;;;;;;;29.96;35.29;98718.22;5106339;28;20447;-66
2022/06/23 09:10:14;;;;;;;2.00;1.30;;;;;;;29.99;35.62;98712.34;5108029;28;20032;-66
2022/06/23 09:13:34;;;;;;;4.20;1.08;;;;;;;30.52;39.06;98717.03;5092881;28;20040;-64
2022/06/23 09:16:56;;;;;;;1.60;1.40;;;;;;;30.77;33.93;98715.88;5007892;28;20041;-66
2022/06/23 09:19:59;;;;;;;2.65;1.25;;;;;;;30.02;36.15;98709.19;5097439;28;20490;-66
2022/06/23 09:22:58;;;;;;;2.97;1.13;;;;;;;29.60;36.48;98705.53;5092698;28;20032;-66
2022/06/23 09:26:00;;;;;;;5.43;1.45;;;;;;;29.58;39.24;98709.47;5107433;28;20063;-65
2022/06/23 09:28:57;;;;;;;5.40;1.65;;;;;;;29.63;35.90;98718.53;5087605;28;20414;-66
2022/06/23 09:31:52;;;;;;;1.63;0.88;;;;;;;31.03;35.01;98721.81;5117858;28;20783;-66
2022/06/23 09:34:56;;;;;;;4.30;1.40;;;;;;;31.73;30.66;98713.56;5076290;28;20044;-66
2022/06/23 09:37:50;;;;;;;2.55;1.02;;;;;;;31.81;31.28;98707.75;5098736;28;20035;-66
2022/06/23 09:41:05;;;;;;;2.75;1.40;;;;;;;31.25;31.64;98715.72;5085245;28;20032;-68
2022/06/23 09:44:09;;;;;;;1.52;1.10;;;;;;;29.93;33.87;98721.38;5113524;28;20508;-67
2022/06/23 09:47:17;;;;;;;3.80;1.30;;;;;;;30.03;33.45;98716.22;5110064;28;20039;-67
2022/06/23 09:50:39;;;;;;;3.03;1.10;;;;;;;30.10;34.01;98722.31;5108509;28;20453;-64
2022/06/23 09:53:44;;;;;;;2.80;1.40;;;;;;;31.18;32.50;98714.00;5039965;28;20043;-65
2022/06/23 09:56:34;;;;;;;3.40;1.23;;;;;;;31.73;31.49;98704.66;5109891;28;20852;-66
2022/06/23 09:59:36;;;;;;;1.92;1.20;;;;;;;32.14;30.57;98716.09;5100486;28;20478;-67
2022/06/23 10:02:34;;;;;;;3.38;1.20;;;;;;;32.47;29.39;98702.72;5103820;28;20099;-67
2022/06/23 10:06:04;;;;;;;1.60;1.00;;;;;;;32.59;28.38;98716.19;5113445;28;20055;-66
2022/06/23 10:09:10;;;;;;;4.87;1.93;;;;;;;31.73;29.93;98710.06;5085406;28;20052;-68
2022/06/23 10:12:40;;;;;;;6.45;1.08;;;;;;;30.15;31.93;98713.50;5098044;28;20036;-66
2022/06/23 10:15:47;;;;;;;1.67;1.10;;;;;;;30.91;34.54;98711.91;5112282;28;20035;-66
2022/06/23 10:18:34;;;;;;;1.90;1.10;;;;;;;31.69;32.36;98705.16;5083453;28;20035;-67
2022/06/23 10:21:43;;;;;;;2.00;0.93;;;;;;;32.12;30.57;98706.59;5077656;28;20051;-67
2022/06/23 10:24:37;;;;;;;1.25;1.00;;;;;;;30.69;31.27;98706.28;5084636;28;20462;-66
2022/06/23 10:27:37;;;;;;;2.85;1.30;;;;;;;29.76;31.87;98703.19;5114997;28;20039;-66
2022/06/23 10:30:47;;;;;;;1.77;1.02;;;;;;;28.93;34.85;98701.88;5070515;28;21195;-67
2022/06/23 10:33:51;;;;;;;2.38;1.23;;;;;;;29.70;36.13;98698.72;5097838;28;20035;-66
2022/06/23 10:36:46;;;;;;;2.35;0.93;;;;;;;32.20;30.59;98695.34;5113040;28;20072;-67
2022/06/23 10:39:49;;;;;;;1.95;1.05;;;;;;;33.01;31.93;98684.91;5100802;28;20390;-65
2022/06/23 10:42:56;;;;;;;1.30;1.00;;;;;;;32.72;29.69;98690.56;5076791;28;20363;-66
2022/06/23 10:45:49;;;;;;;1.58;1.00;;;;;;;33.75;28.02;98687.19;5092314;28;20040;-66
2022/06/23 10:49:07;;;;;;;3.15;1.23;;;;;;;32.34;28.10;98693.06;5112718;28;20068;-66
2022/06/23 10:52:23;;;;;;;1.77;1.15;;;;;;;31.83;29.11;98694.78;5065685;28;20052;-66
2022/06/23 10:55:22;;;;;;;3.20;1.00;;;;;;;34.66;30.81;98685.50;5117227;28;20039;-67
2022/06/23 10:58:40;;;;;;;2.88;1.20;;;;;;;33.25;25.58;98691.91;5099050;28;20028;-66
2022/06/23 11:01:53;;;;;;;2.05;0.93;;;;;;;34.41;25.04;98687.03;5102913;28;20055;-67
2022/06/23 11:05:15;;;;;;;3.33;0.98;;;;;;;34.69;28.43;98684.13;5120177;28;20043;-65
2022/06/23 11:08:27;;;;;;;1.73;0.80;;;;;;;34.68;24.53;98682.50;5108185;28;20031;-69
2022/06/23 11:11:34;;;;;;;1.30;0.88;;;;;;;33.91;24.92;98679.16;5099601;28;20043;-68
2022/06/23 11:14:32;;;;;;;3.35;0.90;;;;;;;33.62;25.37;98677.59;5097483;28;20063;-66
2022/06/23 11:17:43;;;;;;;1.27;1.00;;;;;;;33.71;25.05;98677.94;5106856;28;20042;-67
2022/06/23 11:21:16;;;;;;;2.33;1.00;;;;;;;33.65;24.35;98673.56;5112153;28;20081;-67
2022/06/23 11:24:30;;;;;;;3.35;1.00;;;;;;;33.74;25.16;98669.28;5004805;28;20116;-65
2022/06/23 11:27:54;;;;;;;3.65;1.10;;;;;;;34.86;27.17;98673.88;5011510;28;20038;-67
2022/06/23 11:31:11;;;;;;;1.20;0.60;;;;;;;35.03;24.62;98670.09;5094863;28;20524;-68
2022/06/23 11:34:27;;;;;;;1.77;0.90;;;;;;;34.20;26.76;98672.53;5104960;28;20047;-68
2022/06/23 11:37:25;;;;;;;1.20;0.70;;;;;;;33.84;23.90;98662.25;5063556;28;20051;-69
2022/06/23 11:40:23;;;;;;;3.08;0.70;;;;;;;33.96;29.17;98667.50;5092175;28;20035;-69
2022/06/23 11:43:22;;;;;;;1.67;0.98;;;;;;;34.58;25.36;98667.81;5097252;28;20104;-67
2022/06/23 11:46:26;;;;;;;3.80;1.02;;;;;;;33.54;24.53;98669.94;5083451;28;20038;-69
2022/06/23 11:49:55;;;;;;;1.48;0.93;;;;;;;34.14;24.75;98668.97;5093164;28;20060;-65
2022/06/23 11:53:03;;;;;;;1.13;0.60;;;;;;;35.10;23.85;98656.22;5099448;28;20050;-68
2022/06/23 11:55:55;;;;;;;2.85;0.98;;;;;;;33.92;23.97;98662.59;5100588;28;20106;-68
2022/06/23 11:59:22;;;;;;;1.83;0.95;;;;;;;35.95;22.16;98661.38;5115282;28;20032;-66
2022/06/23 12:02:07;;;;;;;1.38;0.85;;;;;;;35.73;22.52;98654.31;5094796;28;20113;-66
2022/06/23 12:05:16;;;;;;;1.00;0.70;;;;;;;35.56;21.64;98658.16;5099913;28;20036;-68
2022/06/23 12:08:14;;;;;;;1.67;0.70;;;;;;;36.11;23.13;98648.50;5093590;28;20082;-68
2022/06/23 12:11:00;;;;;;;1.48;0.88;;;;;;;35.96;24.60;98649.38;5078003;28;20051;-68
2022/06/23 12:13:45;;;;;;;2.05;0.98;;;;;;;37.04;21.54;98649.97;5115649;28;20036;-67
2022/06/23 12:16:32;;;;;;;2.83;1.08;;;;;;;36.35;23.03;98650.59;5097184;28;20496;-67
2022/06/23 12:19:21;;;;;;;1.88;0.75;;;;;;;37.24;23.35;98645.47;5100252;28;20044;-67
2022/06/23 12:22:46;;;;;;;1.55;0.85;;;;;;;35.76;20.40;98640.19;5080731;28;20475;-67
2022/06/23 12:25:39;;;;;;;2.90;0.90;;;;;;;35.71;20.79;98638.22;5064279;28;20063;-66
2022/06/23 12:28:38;;;;;;;1.92;0.90;;;;;;;36.03;21.09;98639.00;5090014;28;20137;-66
2022/06/23 12:31:41;;;;;;;1.55;0.70;;;;;;;35.54;21.32;98637.72;5095512;28;20059;-66
2022/06/23 12:35:20;;;;;;;1.25;0.70;;;;;;;34.40;21.31;98644.63;5088489;28;20051;-68
2022/06/23 12:38:11;;;;;;;1.95;0.90;;;;;;;34.66;21.62;98633.84;5049665;28;20556;-67
2022/06/23 12:41:26;;;;;;;1.15;0.85;;;;;;;33.99;21.95;98631.66;5074908;28;20337;-70
2022/06/23 12:44:43;;;;;;;1.42;0.90;;;;;;;33.92;21.86;98630.00;5098381;28;20047;-67
2022/06/23 12:47:35;;;;;;;1.50;0.80;;;;;;;33.75;22.35;98629.38;5084777;28;20043;-67
2022/06/23 12:51:04;;;;;;;1.52;0.88;;;;;;;33.80;21.99;98623.97;5084562;28;20044;-66
2022/06/23 12:54:04;;;;;;;1.20;0.77;;;;;;;33.99;22.94;98634.38;5077815;28;20056;-67
2022/06/23 12:57:15;;;;;;;3.55;0.90;;;;;;;33.79;21.90;98630.47;5084027;28;20036;-67
2022/06/23 13:00:16;;;;;;;1.65;1.00;;;;;;;33.80;21.71;98623.97;5082251;28;20044;-67
2022/06/23 13:03:46;;;;;;;2.58;1.30;;;;;;;34.90;21.41;98619.75;5093961;28;20475;-67
2022/06/23 13:06:44;;;;;;;1.27;0.98;;;;;;;34.10;21.22;98627.91;5063080;28;20060;-66
2022/06/23 13:09:37;;;;;;;2.55;0.85;;;;;;;33.79;21.44;98623.16;5090275;28;20445;-67
2022/06/23 13:12:38;;;;;;;2.30;0.90;;;;;;;34.32;21.08;98624.25;5095818;28;20039;-67
2022/06/23 13:15:38;;;;;;;1.00;0.73;;;;;;;33.07;21.77;98612.53;5093289;28;20517;-66
2022/06/23 13:18:36;;;;;;;0.90;0.70;;;;;;;33.99;21.38;98621.63;5093227;28;20036;-66
2022/06/23 13:21:29;;;;;;;1.55;0.75;;;;;;;33.76;22.52;98623.69;5110191;28;20086;-66
2022/06/23 13:24:18;;;;;;;1.55;0.80;;;;;;;33.71;22.63;98620.94;5102747;28;20470;-66
2022/06/23 13:27:20;;;;;;;2.42;0.80;;;;;;;34.47;21.61;98619.94;5113418;28;20474;-66
2022/06/23 13:30:08;;;;;;;1.25;0.90;;;;;;;33.88;21.11;98622.66;5113673;28;20395;-65
2022/06/23 13:32:55;;;;;;;3.90;0.93;;;;;;;34.13;20.75;98618.41;5114549;28;20074;-66
2022/06/23 13:35:47;;;;;;;2.95;1.35;;;;;;;33.98;21.02;98616.47;5113575;28;20051;-67
2022/06/23 13:38:45;;;;;;;1.30;0.90;;;;;;;33.61;20.84;98605.38;5114321;28;20039;-66
2022/06/23 13:41:41;;;;;;;1.70;1.10;;;;;;;33.79;22.04;98606.84;5088965;28;20039;-68
2022/06/23 13:44:52;;;;;;;1.33;0.90;;;;;;;34.71;20.59;98601.25;5084604;28;20039;-67
2022/06/23 13:47:51;;;;;;;1.20;0.75;;;;;;;33.87;21.74;98610.13;5113658;28;20061;-67
2022/06/23 13:51:00;;;;;;;3.00;0.90;;;;;;;34.43;20.80;98605.22;5114045;28;20039;-67
2022/06/23 13:53:58;;;;;;;1.40;0.80;;;;;;;33.76;21.31;98601.97;5103428;28;20386;-66
2022/06/23 13:56:49;;;;;;;1.42;0.80;;;;;;;34.45;20.30;98598.47;5099569;28;20077;-67
2022/06/23 13:59:42;;;;;;;2.28;0.80;;;;;;;33.99;21.15;98604.50;5083547;28;20043;-68
2022/06/23 14:02:47;;;;;;;2.83;0.95;;;;;;;33.41;22.55;98600.63;5113197;28;20035;-67
2022/06/23 14:05:54;;;;;;;1.58;0.82;;;;;;;33.87;20.92;98593.84;5102128;28;20047;-67
2022/06/23 14:08:47;;;;;;;1.55;0.80;;;;;;;33.70;21.38;98583.19;5083805;28;20245;-66
2022/06/23 14:11:48;;;;;;;2.05;0.88;;;;;;;32.66;21.48;98583.97;5112871;28;20047;-67